createdAt,value
2018-08-20T00:01:17.824Z,75.00
2018-08-20T00:03:48.851Z,75.20
2018-08-20T00:06:16.933Z,75.20
2018-08-20T00:08:44.795Z,75.20
2018-08-20T00:11:12.439Z,75.40
2018-08-20T00:13:40.220Z,75.80
2018-08-20T00:16:07.927Z,75.80
2018-08-20T00:18:35.495Z,75.80
2018-08-20T00:21:03.240Z,75.90
2018-08-20T00:23:30.799Z,76.10
2018-08-20T00:25:59.263Z,76.70
2018-08-20T00:28:27.644Z,76.70
2018-08-20T00:30:55.812Z,76.90
2018-08-20T00:33:23.464Z,77.10
2018-08-20T00:35:51.341Z,77.10
2018-08-20T00:38:19.007Z,77.10
2018-08-20T00:40:46.600Z,77.30
2018-08-20T00:43:14.448Z,77.40
2018-08-20T00:45:42.559Z,77.60
2018-08-20T00:48:10.371Z,77.40
2018-08-20T00:50:38.166Z,77.40
2018-08-20T00:53:06.060Z,77.60
2018-08-20T00:55:33.688Z,77.80
2018-08-20T00:58:01.297Z,78.00
2018-08-20T01:00:28.998Z,78.40
2018-08-20T01:02:56.565Z,78.20
2018-08-20T01:05:24.412Z,78.20
2018-08-20T01:07:52.074Z,78.60
2018-08-20T01:10:19.680Z,78.60
2018-08-20T01:12:47.521Z,78.70
2018-08-20T01:15:15.403Z,78.70
2018-08-20T01:17:43.433Z,78.90
2018-08-20T01:20:11.125Z,79.30
2018-08-20T01:22:38.937Z,79.50
2018-08-20T01:25:06.542Z,79.50
2018-08-20T01:27:34.131Z,79.90
2018-08-20T01:30:01.700Z,80.00
2018-08-20T01:32:29.289Z,80.20
2018-08-20T01:35:12.843Z,80.00
2018-08-20T01:37:40.433Z,80.40
2018-08-20T01:40:07.988Z,80.40
2018-08-20T01:42:35.556Z,80.60
2018-08-20T01:45:03.422Z,80.60
2018-08-20T01:47:31.054Z,80.40
2018-08-20T01:49:58.651Z,80.20
2018-08-20T01:52:26.312Z,80.60
2018-08-20T01:54:53.874Z,81.00
2018-08-20T01:57:21.415Z,81.20
2018-08-20T01:59:49.181Z,81.90
2018-08-20T02:02:16.797Z,82.10
2018-08-20T02:04:46.111Z,82.70
2018-08-20T02:07:14.049Z,83.00
2018-08-20T02:09:41.887Z,82.80
2018-08-20T02:12:09.768Z,82.80
2018-08-20T02:14:37.418Z,82.70
2018-08-20T02:17:05.107Z,82.80
2018-08-20T02:19:32.848Z,82.80
2018-08-20T02:22:00.807Z,83.20
2018-08-20T02:24:28.382Z,83.00
2018-08-20T02:26:56.156Z,82.80
2018-08-20T02:29:23.916Z,82.80
2018-08-20T02:31:51.553Z,83.40
2018-08-20T02:34:19.221Z,83.40
2018-08-20T02:36:47.111Z,84.00
2018-08-20T02:39:14.913Z,84.00
2018-08-20T02:41:43.257Z,84.30
2018-08-20T02:44:12.007Z,84.30
2018-08-20T02:46:50.192Z,84.50
2018-08-20T02:49:18.213Z,84.90
2018-08-20T02:51:46.791Z,85.10
2018-08-20T02:54:14.472Z,85.10
2018-08-20T02:56:42.552Z,85.10
2018-08-20T02:59:10.627Z,85.10
2018-08-20T03:01:38.429Z,84.50
2018-08-20T03:04:06.664Z,83.60
2018-08-20T03:06:34.625Z,84.00
2018-08-20T03:09:02.216Z,84.10
2018-08-20T03:11:29.887Z,84.30
2018-08-20T03:13:57.576Z,84.30
2018-08-20T03:16:25.256Z,84.50
2018-08-20T03:18:52.831Z,84.50
2018-08-20T03:21:20.402Z,84.50
2018-08-20T03:23:48.069Z,84.50
2018-08-20T03:26:15.686Z,84.70
2018-08-20T03:28:43.287Z,84.90
2018-08-20T03:31:11.029Z,84.90
2018-08-20T03:33:39.006Z,85.10
2018-08-20T03:36:06.604Z,85.30
2018-08-20T03:38:34.529Z,85.30
2018-08-20T03:41:02.038Z,85.50
2018-08-20T03:43:29.781Z,85.50
2018-08-20T03:45:57.308Z,85.60
2018-08-20T03:48:24.951Z,85.60
2018-08-20T03:50:52.644Z,85.60
2018-08-20T03:53:20.264Z,86.00
2018-08-20T03:55:48.077Z,86.90
2018-08-20T03:58:15.737Z,87.10
2018-08-20T04:00:43.606Z,87.50
2018-08-20T04:03:11.370Z,88.10
2018-08-20T04:05:39.016Z,87.90
2018-08-20T04:08:06.798Z,88.10
2018-08-20T04:10:34.859Z,88.10
2018-08-20T04:13:02.463Z,88.20
2018-08-20T04:15:30.219Z,88.20
2018-08-20T04:17:57.779Z,87.70
2018-08-20T04:20:25.332Z,88.10
2018-08-20T04:22:52.924Z,88.10
2018-08-20T04:25:20.696Z,88.20
2018-08-20T04:27:48.699Z,88.10
2018-08-20T04:30:16.357Z,87.90
2018-08-20T04:32:44.236Z,87.70
2018-08-20T04:35:11.808Z,88.10
2018-08-20T04:37:39.424Z,88.20
2018-08-20T04:40:07.700Z,88.10
2018-08-20T04:42:35.384Z,88.10
2018-08-20T04:45:03.082Z,88.10
2018-08-20T04:47:31.006Z,87.70
2018-08-20T04:49:58.795Z,87.50
2018-08-20T04:52:36.480Z,87.10
2018-08-20T04:55:04.239Z,86.90
2018-08-20T04:57:31.765Z,86.60
2018-08-20T04:59:59.565Z,86.60
2018-08-20T05:02:27.422Z,86.80
2018-08-20T05:04:54.998Z,86.90
2018-08-20T05:07:22.861Z,86.90
2018-08-20T05:09:50.962Z,86.80
2018-08-20T05:12:18.573Z,86.60
2018-08-20T05:14:46.335Z,86.60
2018-08-20T05:17:14.020Z,86.20
2018-08-20T05:19:41.693Z,86.20
2018-08-20T05:22:09.295Z,86.00
2018-08-20T05:24:36.960Z,85.80
2018-08-20T05:27:05.070Z,84.90
2018-08-20T05:29:32.852Z,84.50
2018-08-20T05:32:00.480Z,84.50
2018-08-20T05:34:28.159Z,84.50
2018-08-20T05:36:55.865Z,84.10
2018-08-20T05:39:23.410Z,83.40
2018-08-20T05:41:51.081Z,82.70
2018-08-20T05:44:19.023Z,82.10
2018-08-20T05:46:46.640Z,81.70
2018-08-20T05:49:14.561Z,80.80
2018-08-20T05:51:42.205Z,80.00
2018-08-20T05:54:10.189Z,80.20
2018-08-20T05:56:37.949Z,79.70
2018-08-20T05:59:05.818Z,78.60
2018-08-20T06:01:33.529Z,78.70
2018-08-20T06:04:01.155Z,78.20
2018-08-20T06:06:28.830Z,78.20
2018-08-20T06:08:56.566Z,78.00
2018-08-20T06:11:24.242Z,77.40
2018-08-20T06:13:51.892Z,76.50
2018-08-20T06:16:19.660Z,76.50
2018-08-20T06:18:47.288Z,75.80
2018-08-20T06:21:14.942Z,75.60
2018-08-20T06:23:42.628Z,75.60
2018-08-20T06:26:10.716Z,75.00
2018-08-20T06:28:38.444Z,74.30
2018-08-20T06:31:06.479Z,73.70
2018-08-20T06:33:34.061Z,73.20
2018-08-20T06:36:01.901Z,72.60
2018-08-20T06:38:29.545Z,70.90
2018-08-20T06:40:57.414Z,71.80
2018-08-20T06:43:25.037Z,70.90
2018-08-20T06:45:52.841Z,68.30
2018-08-20T06:48:20.473Z,67.70
2018-08-20T06:50:48.348Z,66.80
2018-08-20T06:53:19.879Z,66.30
2018-08-20T06:55:47.684Z,66.40
2018-08-20T06:58:15.327Z,65.90
2018-08-20T07:00:43.012Z,62.30
2018-08-20T07:03:10.662Z,62.50
2018-08-20T07:05:38.344Z,59.30
2018-08-20T07:08:05.948Z,59.90
2018-08-20T07:10:41.990Z,59.80
2018-08-20T07:13:22.896Z,59.20
2018-08-20T07:15:50.497Z,58.00
2018-08-20T07:18:18.265Z,56.90
2018-08-20T07:20:45.827Z,55.20
2018-08-20T07:23:13.468Z,55.70
2018-08-20T07:25:41.107Z,54.90
2018-08-20T07:28:08.845Z,54.30
2018-08-20T07:30:36.752Z,53.20
2018-08-20T07:33:04.584Z,52.80
2018-08-20T07:35:32.098Z,51.60
2018-08-20T07:38:00.051Z,50.50
2018-08-20T07:40:27.905Z,50.20
2018-08-20T07:42:55.792Z,49.60
2018-08-20T07:45:23.537Z,48.20
2018-08-20T07:47:51.295Z,47.90
2018-08-20T07:50:19.188Z,46.10
2018-08-20T07:52:46.861Z,45.50
2018-08-20T07:55:14.591Z,45.30
2018-08-20T07:57:42.326Z,45.90
2018-08-20T08:00:10.353Z,44.70
2018-08-20T08:02:38.491Z,43.60
2018-08-20T08:05:07.907Z,43.50
2018-08-20T08:07:35.699Z,42.00
2018-08-20T08:10:04.865Z,40.50
2018-08-20T08:12:32.535Z,38.50
2018-08-20T08:15:00.363Z,35.90
2018-08-20T08:17:28.156Z,32.80
2018-08-20T08:19:55.872Z,29.90
2018-08-20T08:22:23.595Z,28.30
2018-08-20T08:24:51.344Z,26.10
2018-08-20T08:27:19.005Z,25.30
2018-08-20T08:29:46.999Z,23.20
2018-08-20T08:32:14.714Z,22.70
2018-08-20T08:34:42.373Z,21.40
2018-08-20T08:37:10.233Z,21.50
2018-08-20T08:39:37.876Z,19.60
2018-08-20T08:42:05.626Z,19.10
2018-08-20T08:44:33.296Z,18.50
2018-08-20T08:47:01.223Z,17.30
2018-08-20T08:49:29.123Z,16.90
2018-08-20T08:51:56.987Z,17.10
2018-08-20T08:54:24.748Z,16.60
2018-08-20T08:56:52.484Z,16.20
2018-08-20T08:59:20.514Z,15.00
2018-08-20T09:01:48.328Z,14.70
2018-08-20T09:04:16.130Z,14.20
2018-08-20T09:06:44.300Z,14.10
2018-08-20T09:09:12.165Z,14.00
2018-08-20T09:11:40.011Z,13.90
2018-08-20T09:14:07.804Z,13.20
2018-08-20T09:16:35.360Z,13.30
2018-08-20T09:19:03.198Z,13.20
2018-08-20T09:21:30.782Z,12.80
2018-08-20T09:23:58.636Z,12.60
2018-08-20T09:26:26.420Z,12.10
2018-08-20T09:28:54.378Z,11.60
2018-08-20T09:31:22.259Z,11.30
2018-08-20T09:33:49.852Z,10.90
2018-08-20T09:36:17.378Z,10.50
2018-08-20T09:38:45.224Z,9.80
2018-08-20T09:41:12.905Z,10.40
2018-08-20T09:43:40.600Z,10.50
2018-08-20T09:46:08.297Z,10.60
2018-08-20T09:48:35.937Z,10.00
2018-08-20T09:51:03.647Z,10.00
2018-08-20T09:53:37.831Z,9.70
2018-08-20T09:56:05.608Z,9.40
2018-08-20T09:58:33.346Z,9.60
2018-08-20T10:01:01.001Z,9.70
2018-08-20T10:03:31.740Z,9.00
2018-08-20T10:06:03.559Z,8.80
2018-08-20T10:08:31.108Z,8.50
2018-08-20T10:10:58.685Z,8.50
2018-08-20T10:13:26.351Z,8.70
2018-08-20T10:15:53.983Z,8.70
2018-08-20T10:18:21.661Z,8.80
2018-08-20T10:20:49.412Z,8.90
2018-08-20T10:23:17.088Z,9.30
2018-08-20T10:25:45.036Z,9.20
2018-08-20T10:28:12.648Z,9.20
2018-08-20T10:30:40.509Z,9.20
2018-08-20T10:33:08.265Z,9.40
2018-08-20T10:35:35.903Z,9.50
2018-08-20T10:38:03.571Z,9.00
2018-08-20T10:40:31.048Z,8.50
2018-08-20T10:42:58.654Z,8.50
2018-08-20T10:45:31.889Z,8.50
2018-08-20T10:47:59.451Z,8.00
2018-08-20T10:50:27.008Z,8.10
2018-08-20T10:52:54.597Z,8.20
2018-08-20T10:55:22.230Z,8.40
2018-08-20T10:57:49.791Z,8.60
2018-08-20T11:00:17.492Z,8.60
2018-08-20T11:02:45.088Z,8.40
2018-08-20T11:05:16.278Z,8.60
2018-08-20T11:07:43.963Z,8.90
2018-08-20T11:10:11.748Z,9.30
2018-08-20T11:12:39.451Z,8.60
2018-08-20T11:15:08.566Z,8.30
2018-08-20T11:17:36.540Z,8.70
2018-08-20T11:20:06.179Z,8.50
2018-08-20T11:22:33.800Z,8.80
2018-08-20T11:25:01.361Z,8.40
2018-08-20T11:27:29.072Z,8.00
2018-08-20T11:29:56.670Z,7.90
2018-08-20T11:32:24.245Z,7.30
2018-08-20T11:34:51.801Z,7.30
2018-08-20T11:37:19.397Z,8.10
2018-08-20T11:39:46.943Z,7.70
2018-08-20T11:42:14.772Z,7.90
2018-08-20T11:44:42.388Z,8.20
2018-08-20T11:47:09.891Z,8.00
2018-08-20T11:49:37.510Z,7.90
2018-08-20T11:52:05.151Z,8.20
2018-08-20T11:54:32.688Z,7.90
2018-08-20T11:57:00.276Z,7.50
2018-08-20T11:59:28.015Z,7.60
2018-08-20T12:01:55.719Z,7.60
2018-08-20T12:04:23.775Z,7.70
2018-08-20T12:06:51.485Z,7.20
2018-08-20T12:09:19.086Z,7.20
2018-08-20T12:11:46.687Z,7.30
2018-08-20T12:14:14.234Z,7.80
2018-08-20T12:16:41.878Z,8.60
2018-08-20T12:19:09.587Z,8.40
2018-08-20T12:21:37.182Z,8.80
2018-08-20T12:24:04.804Z,8.60
2018-08-20T12:26:32.427Z,8.30
2018-08-20T12:29:00.165Z,8.50
2018-08-20T12:31:27.964Z,8.50
2018-08-20T12:33:55.879Z,8.70
2018-08-20T12:36:23.430Z,9.30
2018-08-20T12:38:51.483Z,9.30
2018-08-20T12:41:19.077Z,8.90
2018-08-20T12:43:46.712Z,8.80
2018-08-20T12:46:17.770Z,8.40
2018-08-20T12:48:46.099Z,8.60
2018-08-20T12:51:14.673Z,9.20
2018-08-20T12:53:42.241Z,9.00
2018-08-20T12:56:10.278Z,9.30
2018-08-20T12:58:41.584Z,9.40
2018-08-20T13:01:09.380Z,9.40
2018-08-20T13:03:37.062Z,9.30
2018-08-20T13:06:05.104Z,9.70
2018-08-20T13:08:32.717Z,10.00
2018-08-20T13:11:00.321Z,9.50
2018-08-20T13:13:27.901Z,9.10
2018-08-20T13:15:55.627Z,9.10
2018-08-20T13:18:23.264Z,9.10
2018-08-20T13:20:51.396Z,9.60
2018-08-20T13:23:19.022Z,9.70
2018-08-20T13:25:46.704Z,10.40
2018-08-20T13:28:14.671Z,10.60
2018-08-20T13:30:50.664Z,11.00
2018-08-20T13:33:23.977Z,11.20
2018-08-20T13:35:52.987Z,11.20
2018-08-20T13:38:20.720Z,11.10
2018-08-20T13:40:48.401Z,11.30
2018-08-20T13:43:22.075Z,11.20
2018-08-20T13:45:50.363Z,11.00
2018-08-20T13:48:30.034Z,11.00
2018-08-20T13:51:08.173Z,10.80
2018-08-20T13:53:36.725Z,11.30
2018-08-20T13:56:04.557Z,11.90
2018-08-20T13:58:33.785Z,12.60
2018-08-20T14:01:06.365Z,13.00
2018-08-20T14:03:35.133Z,13.40
2018-08-20T14:06:06.330Z,12.60
2018-08-20T14:08:35.678Z,13.10
2018-08-20T14:11:08.574Z,13.10
2018-08-20T14:13:38.955Z,13.50
2018-08-20T14:16:12.456Z,14.60
2018-08-20T14:18:40.237Z,14.50
2018-08-20T14:21:12.240Z,14.00
2018-08-20T14:23:42.851Z,14.00
2018-08-20T14:26:10.711Z,13.60
2018-08-20T14:28:38.308Z,13.50
2018-08-20T14:31:06.028Z,13.90
2018-08-20T14:33:33.746Z,14.10
2018-08-20T14:36:01.562Z,14.80
2018-08-20T14:38:29.353Z,15.40
2018-08-20T14:40:57.047Z,15.40
2018-08-20T14:43:24.599Z,15.80
2018-08-20T14:45:58.783Z,15.70
2018-08-20T14:48:27.027Z,15.50
2018-08-20T14:50:54.870Z,15.50
2018-08-20T14:53:22.764Z,15.20
2018-08-20T14:55:50.854Z,16.00
2018-08-20T14:58:18.454Z,16.70
2018-08-20T15:00:46.306Z,17.40
2018-08-20T15:03:14.167Z,17.60
2018-08-20T15:05:42.126Z,18.00
2018-08-20T15:08:09.826Z,18.00
2018-08-20T15:10:37.662Z,18.50
2018-08-20T15:13:05.341Z,19.00
2018-08-20T15:15:33.017Z,19.70
2018-08-20T15:18:00.530Z,20.00
2018-08-20T15:20:28.426Z,20.90
2018-08-20T15:22:56.158Z,21.80
2018-08-20T15:25:23.820Z,22.90
2018-08-20T15:27:51.413Z,22.80
2018-08-20T15:30:19.024Z,22.80
2018-08-20T15:32:46.708Z,23.00
2018-08-20T15:35:14.188Z,24.00
2018-08-20T15:37:42.177Z,24.20
2018-08-20T15:40:09.860Z,24.80
2018-08-20T15:42:37.476Z,25.00
2018-08-20T15:45:05.133Z,25.60
2018-08-20T15:47:32.721Z,26.10
2018-08-20T15:50:00.328Z,26.40
2018-08-20T15:52:27.932Z,27.00
2018-08-20T15:54:55.560Z,27.30
2018-08-20T15:57:23.136Z,27.60
2018-08-20T15:59:50.809Z,28.00
2018-08-20T16:02:18.370Z,28.40
2018-08-20T16:04:45.953Z,28.70
2018-08-20T16:07:13.550Z,29.00
2018-08-20T16:09:41.171Z,29.20
2018-08-20T16:12:08.905Z,29.20
2018-08-20T16:14:36.520Z,29.70
2018-08-20T16:17:04.212Z,29.60
2018-08-20T16:19:31.956Z,30.10
2018-08-20T16:21:59.645Z,30.60
2018-08-20T16:24:27.317Z,31.20
2018-08-20T16:26:54.941Z,31.50
2018-08-20T16:29:22.583Z,31.50
2018-08-20T16:31:50.295Z,31.80
2018-08-20T16:34:18.073Z,31.30
2018-08-20T16:36:45.727Z,31.50
2018-08-20T16:39:13.411Z,31.50
2018-08-20T16:41:41.260Z,31.90
2018-08-20T16:44:10.050Z,32.40
2018-08-20T16:46:38.124Z,32.50
2018-08-20T16:49:07.108Z,33.00
2018-08-20T16:51:34.974Z,33.10
2018-08-20T16:54:02.680Z,33.30
2018-08-20T16:56:30.372Z,34.20
2018-08-20T16:58:58.054Z,34.20
2018-08-20T17:01:25.841Z,34.70
2018-08-20T17:03:53.599Z,35.10
2018-08-20T17:06:21.233Z,34.80
2018-08-20T17:08:49.009Z,34.80
2018-08-20T17:11:16.941Z,35.10
2018-08-20T17:13:44.501Z,35.40
2018-08-20T17:16:13.835Z,36.20
2018-08-20T17:18:41.941Z,35.90
2018-08-20T17:21:09.777Z,36.30
2018-08-20T17:23:37.565Z,36.60
2018-08-20T17:26:06.034Z,36.60
2018-08-20T17:28:33.887Z,36.80
2018-08-20T17:31:06.063Z,37.40
2018-08-20T17:33:34.771Z,37.70
2018-08-20T17:36:02.456Z,38.30
2018-08-20T17:38:30.146Z,38.60
2018-08-20T17:40:57.886Z,38.50
2018-08-20T17:43:25.472Z,39.10
2018-08-20T17:45:55.081Z,39.50
2018-08-20T17:48:30.149Z,39.70
2018-08-20T17:50:58.244Z,40.00
2018-08-20T17:53:58.059Z,40.30
2018-08-20T17:56:25.744Z,40.50
2018-08-20T17:58:59.466Z,40.60
2018-08-20T18:01:27.675Z,41.10
2018-08-20T18:03:55.424Z,41.40
2018-08-20T18:06:38.944Z,42.00
2018-08-20T18:09:06.738Z,42.10
2018-08-20T18:11:38.875Z,42.60
2018-08-20T18:14:06.573Z,42.90
2018-08-20T18:16:34.351Z,43.20
2018-08-20T18:19:02.089Z,43.60
2018-08-20T18:21:29.732Z,43.80
2018-08-20T18:23:57.371Z,44.00
2018-08-20T18:26:29.689Z,44.60
2018-08-20T18:28:57.341Z,44.90
2018-08-20T18:31:26.482Z,45.20
2018-08-20T18:33:54.356Z,45.80
2018-08-20T18:36:23.242Z,45.60
2018-08-20T18:38:56.203Z,45.90
2018-08-20T18:41:57.493Z,46.40
2018-08-20T18:44:25.376Z,47.00
2018-08-20T18:46:53.601Z,47.30
2018-08-20T18:49:22.177Z,47.60
2018-08-20T18:52:00.548Z,47.80
2018-08-20T18:54:28.688Z,47.90
2018-08-20T18:57:01.803Z,48.40
2018-08-20T18:59:30.053Z,49.10
2018-08-20T19:01:57.619Z,49.30
2018-08-20T19:04:28.755Z,49.30
2018-08-20T19:07:01.048Z,49.90
2018-08-20T19:09:28.879Z,51.40
2018-08-20T19:11:56.655Z,51.00
2018-08-20T19:14:24.780Z,50.80
2018-08-20T19:16:52.848Z,50.70
2018-08-20T19:19:20.517Z,51.10
2018-08-20T19:21:48.315Z,51.90
2018-08-20T19:24:16.012Z,52.30
2018-08-20T19:26:43.735Z,52.90
2018-08-20T19:29:31.042Z,52.90
2018-08-20T19:31:58.829Z,53.50
2018-08-20T19:34:26.648Z,54.00
2018-08-20T19:36:54.445Z,54.00
2018-08-20T19:39:22.260Z,54.20
2018-08-20T19:41:49.982Z,55.10
2018-08-20T19:44:17.647Z,55.50
2018-08-20T19:46:45.418Z,56.10
2018-08-20T19:49:14.090Z,56.40
2018-08-20T19:51:42.992Z,56.90
2018-08-20T19:54:13.958Z,57.40
2018-08-20T19:56:41.801Z,57.80
2018-08-20T19:59:10.264Z,57.70
2018-08-20T20:01:38.126Z,58.30
2018-08-20T20:04:05.807Z,58.40
2018-08-20T20:06:33.585Z,58.60
2018-08-20T20:09:09.547Z,58.90
2018-08-20T20:11:41.067Z,59.30
2018-08-20T20:14:08.649Z,59.80
2018-08-20T20:16:42.040Z,60.30
2018-08-20T20:19:10.207Z,61.00
2018-08-20T20:21:38.222Z,61.60
2018-08-20T20:24:07.081Z,61.80
2018-08-20T20:26:34.831Z,62.00
2018-08-20T20:29:03.028Z,62.30
2018-08-20T20:31:31.881Z,62.30
2018-08-20T20:34:00.868Z,62.90
2018-08-20T20:36:29.891Z,62.50
2018-08-20T20:38:58.079Z,63.30
2018-08-20T20:41:25.846Z,63.50
2018-08-20T20:43:54.028Z,63.80
2018-08-20T20:46:21.964Z,63.80
2018-08-20T20:48:49.953Z,63.70
2018-08-20T20:51:17.655Z,64.40
2018-08-20T20:53:45.377Z,64.80
2018-08-20T20:56:13.166Z,64.40
2018-08-20T20:58:40.928Z,65.50
2018-08-20T21:01:10.218Z,65.70
2018-08-20T21:03:37.953Z,65.90
2018-08-20T21:06:06.354Z,66.30
2018-08-20T21:08:40.324Z,66.40
2018-08-20T21:11:09.309Z,67.00
2018-08-20T21:13:37.214Z,67.00
2018-08-20T21:16:06.011Z,67.60
2018-08-20T21:18:36.640Z,67.70
2018-08-20T21:21:04.420Z,68.10
2018-08-20T21:23:34.756Z,67.90
2018-08-20T21:26:02.847Z,68.10
2018-08-20T21:28:36.667Z,68.70
2018-08-20T21:31:04.782Z,68.50
2018-08-20T21:33:32.464Z,68.90
2018-08-20T21:36:00.189Z,69.20
2018-08-20T21:38:29.397Z,69.80
2018-08-20T21:40:57.272Z,69.80
2018-08-20T21:43:25.654Z,69.60
2018-08-20T21:45:53.287Z,69.80
2018-08-20T21:48:21.069Z,70.40
2018-08-20T21:50:48.705Z,71.10
2018-08-20T21:53:16.537Z,71.30
2018-08-20T21:55:44.068Z,71.80
2018-08-20T21:58:11.781Z,72.20
2018-08-20T22:00:39.553Z,72.20
2018-08-20T22:03:09.360Z,73.00
2018-08-20T22:05:36.933Z,73.00
2018-08-20T22:08:05.235Z,72.80
2018-08-20T22:10:32.893Z,73.20
2018-08-20T22:13:00.619Z,73.50
2018-08-20T22:15:28.238Z,73.70
2018-08-20T22:17:56.175Z,74.10
2018-08-20T22:20:23.898Z,74.10
2018-08-20T22:22:51.632Z,74.10
2018-08-20T22:25:19.621Z,74.60
2018-08-20T22:27:52.791Z,74.60
2018-08-20T22:30:20.451Z,74.60
2018-08-20T22:32:48.076Z,75.80
2018-08-20T22:35:21.400Z,75.90
2018-08-20T22:37:50.896Z,76.10
2018-08-20T22:40:19.613Z,76.30
2018-08-20T22:42:50.543Z,76.70
2018-08-20T22:45:19.256Z,76.30
2018-08-20T22:47:47.797Z,76.30
2018-08-20T22:50:15.765Z,76.10
2018-08-20T22:52:45.011Z,76.10
2018-08-20T22:55:14.278Z,75.90
2018-08-20T22:57:54.917Z,75.60
2018-08-20T23:00:24.037Z,75.60
2018-08-20T23:02:53.331Z,75.80
2018-08-20T23:05:21.340Z,75.90
2018-08-20T23:07:49.065Z,76.30
2018-08-20T23:10:16.829Z,76.70
2018-08-20T23:12:44.444Z,77.10
2018-08-20T23:15:13.002Z,77.40
2018-08-20T23:17:41.166Z,77.10
2018-08-20T23:20:32.523Z,77.80
2018-08-20T23:23:01.003Z,78.20
2018-08-20T23:25:28.938Z,78.00
2018-08-20T23:27:56.514Z,78.20
2018-08-20T23:30:24.075Z,78.20
2018-08-20T23:32:51.852Z,78.40
2018-08-20T23:35:19.598Z,78.40
2018-08-20T23:37:47.328Z,78.40
2018-08-20T23:40:14.982Z,78.40
2018-08-20T23:42:42.995Z,78.00
2018-08-20T23:45:10.611Z,78.00
2018-08-20T23:47:38.257Z,78.20
2018-08-20T23:50:06.260Z,78.40
2018-08-20T23:52:34.128Z,78.60
2018-08-20T23:55:02.015Z,78.60
2018-08-20T23:57:29.988Z,78.70
2018-08-20T23:59:57.835Z,78.60
